Airfield :
LOGIN :

Register | Disclaimer

   EN    FR    IT 

 










Legend :    VFR   Marginal VFR   IFR   Intensive IFR   Very Intensive IFR
Visi :
Ceiling :
>= 8 km
>= 3000ft
5 to 8 km
1000 to 3000 ft
1500m to 5 km
500 to 1000 ft
800 to 1500m
200 to 500 ft
< 800m
< 200 ft
Symbols :   Thunderstorms  Fog  Heavy snow  Heavy precipitations  Wind > 20 kt
SIGMETs :     Misc.  Thunderstorms  Icing  Turbulence  Mountain Waves  Volcanic Ashes






- Airport Elevation : 29 ft
- IATA code : SVG


ENZV - Sola

CURRENT METAR :
  • 042050Z 03008KT 9999 FEW044 BKN062 11/09 Q0991

EXPIRED METARs :
  • 042020Z 02008KT 9999 -RA FEW040 BKN050 11/09 Q0991
  • 041950Z 04008KT 9999 -RA FEW010 SCT020 BKN055 10/09 Q0992
  • 041920Z 03010KT 9000 -RADZ FEW008 SCT015 BKN030 10/09 Q0992 TEMPO BKN012
  • 041850Z 03010KT 9000 RADZ FEW008 SCT015 BKN030 10/09 Q0993 TEMPO BKN012
  • 041820Z 01011KT 9000 RADZ FEW007 SCT012 BKN025 10/09 Q0993
  • 041750Z 36012KT 9000 RADZ FEW005 SCT010 BKN015 10/09 Q0994 TEMPO BKN008

TAF TAF ENZV
Valid from the 04 at 18:00 until the 05 at 18:00 UTC


0418/0518 01012KT 9999 -RA SCT007 BKN020
TEMPO 0418/0420 4000 RADZ BR BKN007
BECMG 0422/0424 10012KT
TEMPO 0500/0518 SHRA BKN020CB
BECMG 0502/0504 12015G25KT



MET'MAP, your aeronautical weather chart ! - Copyright ORBIFLY December 2007 - Disclaimer

ORBIFLY MET'MAP TEAM :

Programming & Development : Alexandra Zaïnal
Concept & original design : Baudouin d'Aumeries
Assistance for programming : Marc-Olivier Méhu
Technical & hardware support : Manuel Goepfert

Contact : metmap@orbifly.com




SOURCES & CREDITS :

   NOAA